Time;durP1;ratioP1;P1;durP2;ratioP2;P2;SDS_P1;SDS_P2;PMS_P1;PMS_P2;Temp;Humidity;BMP_temperature;BMP_pressure;BME280_temperature;BME280_humidity;BME280_pressure;Samples;Min_cycle;Max_cycle;Signal;HPM_P1;HPM_P2
2022/07/09 00:00:57;;;;;;;6.57;5.97;;;;;;;21.55;100.00;99071.66;5049635;28;20199;-58
2022/07/09 00:03:24;;;;;;;7.10;4.80;;;;;;;21.62;100.00;99072.00;5049995;28;20677;-59
2022/07/09 00:05:51;;;;;;;5.85;5.35;;;;;;;21.68;100.00;99072.31;5049665;28;20192;-58
2022/07/09 00:08:18;;;;;;;5.18;4.88;;;;;;;21.58;100.00;99066.13;5049600;28;20204;-58
2022/07/09 00:10:45;;;;;;;7.05;5.22;;;;;;;21.55;100.00;99066.38;5048922;28;20240;-58
2022/07/09 00:13:12;;;;;;;5.35;4.82;;;;;;;21.51;100.00;99069.38;5049183;28;20200;-56
2022/07/09 00:15:39;;;;;;;5.47;5.18;;;;;;;21.38;100.00;99049.25;5048994;28;20220;-57
2022/07/09 00:18:07;;;;;;;6.43;5.88;;;;;;;21.47;100.00;99063.50;5047618;28;20689;-57
2022/07/09 00:20:34;;;;;;;5.72;5.43;;;;;;;21.49;100.00;99060.75;5049512;28;20583;-58
2022/07/09 00:23:01;;;;;;;5.75;5.40;;;;;;;21.54;100.00;99069.97;5049297;28;20292;-56
2022/07/09 00:25:28;;;;;;;5.57;5.22;;;;;;;21.55;100.00;99066.38;5049315;28;20200;-55
2022/07/09 00:27:55;;;;;;;6.40;5.80;;;;;;;21.40;100.00;99064.97;5049514;28;20198;-55
2022/07/09 00:30:22;;;;;;;7.93;5.70;;;;;;;21.47;100.00;99066.16;5049412;28;20200;-54
2022/07/09 00:32:49;;;;;;;8.73;5.28;;;;;;;21.47;100.00;99060.88;5049241;28;20599;-54
2022/07/09 00:35:17;;;;;;;5.85;5.55;;;;;;;21.43;100.00;99050.69;5049307;28;20199;-54
2022/07/09 00:37:44;;;;;;;6.72;6.20;;;;;;;21.35;100.00;99059.22;5048995;28;20324;-54
2022/07/09 00:40:12;;;;;;;6.88;6.30;;;;;;;21.31;100.00;99047.22;5049457;28;20193;-55
2022/07/09 00:42:39;;;;;;;10.45;6.90;;;;;;;21.13;100.00;99048.66;5049366;28;20694;-54
2022/07/09 00:45:07;;;;;;;7.40;6.80;;;;;;;21.14;100.00;99042.41;5049335;28;20220;-55
2022/07/09 00:47:34;;;;;;;7.60;7.00;;;;;;;21.09;100.00;99041.97;5049127;28;20219;-55
2022/07/09 00:50:02;;;;;;;8.43;7.18;;;;;;;21.06;100.00;99050.09;5049158;28;20202;-59
2022/07/09 00:52:31;;;;;;;7.70;7.20;;;;;;;21.05;100.00;99049.28;5048944;28;20267;-57
2022/07/09 00:55:01;;;;;;;7.38;6.78;;;;;;;20.98;100.00;99043.66;5049310;28;20203;-57
2022/07/09 00:57:29;;;;;;;7.32;6.82;;;;;;;21.00;100.00;99044.34;5049416;28;20856;-56
2022/07/09 00:59:57;;;;;;;8.23;7.32;;;;;;;21.12;100.00;99041.69;5049251;28;20218;-57
2022/07/09 01:02:24;;;;;;;7.68;7.28;;;;;;;21.09;100.00;99039.31;5049161;28;20215;-56
2022/07/09 01:04:52;;;;;;;9.00;6.78;;;;;;;21.02;100.00;99013.41;5048815;28;20211;-55
2022/07/09 01:07:18;;;;;;;7.43;6.93;;;;;;;21.07;100.00;99022.75;5048943;28;20262;-55
2022/07/09 01:09:47;;;;;;;7.28;6.78;;;;;;;21.00;100.00;99022.41;5049358;28;20394;-55
2022/07/09 01:12:14;;;;;;;7.07;6.50;;;;;;;20.99;100.00;99015.47;5048910;28;20224;-55
2022/07/09 01:14:41;;;;;;;7.45;6.95;;;;;;;21.10;100.00;99017.25;5048868;28;20201;-54
2022/07/09 01:17:08;;;;;;;6.93;6.45;;;;;;;20.98;100.00;99026.97;5048920;28;20197;-54
2022/07/09 01:19:35;;;;;;;7.10;6.53;;;;;;;21.06;100.00;99032.47;5048678;28;20201;-56
2022/07/09 01:22:04;;;;;;;7.00;6.30;;;;;;;21.02;100.00;99026.59;5048720;28;20283;-55
2022/07/09 01:24:31;;;;;;;7.32;6.65;;;;;;;21.02;100.00;99031.03;5052406;28;20635;-56
2022/07/09 01:26:58;;;;;;;7.25;6.53;;;;;;;21.06;100.00;99021.94;5052552;28;20223;-56
2022/07/09 01:29:25;;;;;;;6.57;6.07;;;;;;;21.10;100.00;99031.28;5052529;28;20203;-54
2022/07/09 01:31:52;;;;;;;6.88;5.65;;;;;;;21.07;100.00;99033.31;5052163;28;20224;-54
2022/07/09 01:34:19;;;;;;;6.45;5.85;;;;;;;21.09;100.00;99031.41;5052367;28;20196;-55
2022/07/09 01:36:46;;;;;;;7.68;6.55;;;;;;;21.11;100.00;99026.81;5052142;28;20288;-55
2022/07/09 01:39:15;;;;;;;6.85;6.45;;;;;;;21.17;100.00;99043.03;5052223;28;20283;-55
2022/07/09 01:41:41;;;;;;;6.85;5.97;;;;;;;21.19;100.00;99041.13;5052103;28;20595;-55
2022/07/09 01:44:09;;;;;;;6.47;5.97;;;;;;;21.16;100.00;99037.84;5052131;28;20207;-55
2022/07/09 01:46:36;;;;;;;6.90;6.40;;;;;;;20.98;100.00;99021.69;5052321;28;20209;-55
2022/07/09 01:49:03;;;;;;;7.00;6.25;;;;;;;21.04;100.00;99039.66;5052045;28;20201;-57
2022/07/09 01:51:30;;;;;;;6.45;5.95;;;;;;;21.08;100.00;99042.91;5052206;28;20788;-58
2022/07/09 01:53:57;;;;;;;6.32;5.93;;;;;;;21.11;100.00;99050.56;5052055;28;20230;-57
2022/07/09 01:56:25;;;;;;;6.70;6.13;;;;;;;21.11;100.00;99047.94;5052010;28;20219;-57
2022/07/09 01:58:52;;;;;;;6.63;6.22;;;;;;;21.19;100.00;99051.69;5051777;28;20766;-57
2022/07/09 02:01:20;;;;;;;6.85;6.35;;;;;;;21.11;100.00;99045.28;5051857;28;20219;-57
2022/07/09 02:03:47;;;;;;;6.65;6.25;;;;;;;21.11;100.00;99042.66;5051737;28;20204;-58
2022/07/09 02:06:14;;;;;;;7.70;7.07;;;;;;;21.01;100.00;99040.75;5051842;28;20346;-58
2022/07/09 02:08:41;;;;;;;6.97;6.47;;;;;;;21.03;100.00;99033.56;5051671;28;20207;-58
2022/07/09 02:11:08;;;;;;;6.65;6.07;;;;;;;21.03;100.00;99036.19;5051600;28;20201;-57
2022/07/09 02:13:36;;;;;;;6.88;6.47;;;;;;;21.02;100.00;99041.59;5051509;28;20204;-57
2022/07/09 02:16:04;;;;;;;7.35;6.72;;;;;;;20.97;100.00;99039.34;5051652;28;20208;-57
2022/07/09 02:18:31;;;;;;;7.28;6.47;;;;;;;20.86;100.00;99023.50;5051761;28;20203;-58
2022/07/09 02:20:58;;;;;;;7.88;6.90;;;;;;;20.89;100.00;99036.44;5051617;28;20284;-57
2022/07/09 02:23:25;;;;;;;6.75;6.32;;;;;;;20.94;100.00;99030.81;5051693;28;20724;-57
2022/07/09 02:25:51;;;;;;;6.65;6.15;;;;;;;20.99;100.00;99032.09;5051216;28;20196;-57
2022/07/09 02:28:18;;;;;;;6.88;6.32;;;;;;;21.01;100.00;99030.19;5051205;28;20201;-54
2022/07/09 02:30:47;;;;;;;6.75;6.35;;;;;;;20.93;100.00;99027.34;5051573;28;20715;-54
2022/07/09 02:33:14;;;;;;;6.78;6.28;;;;;;;20.83;100.00;99034.28;5051171;28;20227;-55
2022/07/09 02:35:41;;;;;;;6.53;5.72;;;;;;;20.83;100.00;99031.66;5050197;28;20207;-55
2022/07/09 02:38:08;;;;;;;6.68;6.22;;;;;;;20.81;100.00;99030.94;5051110;28;20378;-54
2022/07/09 02:40:34;;;;;;;6.30;6.00;;;;;;;20.84;100.00;99033.34;5051300;28;20201;-54
2022/07/09 02:43:01;;;;;;;5.43;5.22;;;;;;;20.90;100.00;99037.28;5050928;28;20227;-55
2022/07/09 02:45:28;;;;;;;6.25;5.65;;;;;;;20.87;100.00;99027.84;5051048;28;20228;-54
2022/07/09 02:47:57;;;;;;;6.13;5.60;;;;;;;20.85;100.00;99035.03;5051015;28;20403;-54
2022/07/09 02:50:24;;;;;;;6.03;5.53;;;;;;;20.79;100.00;99027.56;5050934;28;20279;-55
2022/07/09 02:52:51;;;;;;;5.60;5.20;;;;;;;20.89;100.00;99027.69;5050747;28;20716;-54
2022/07/09 02:55:18;;;;;;;5.75;5.28;;;;;;;20.91;100.00;99023.97;5050787;28;20197;-53
2022/07/09 02:57:44;;;;;;;5.80;5.40;;;;;;;20.99;100.00;99029.47;5050991;28;20200;-54
2022/07/09 03:00:12;;;;;;;5.82;5.30;;;;;;;20.97;100.00;99028.78;5050667;28;20295;-55
2022/07/09 03:02:39;;;;;;;6.35;5.47;;;;;;;21.02;100.00;99023.97;5050561;28;20192;-54
2022/07/09 03:05:09;;;;;;;5.93;5.00;;;;;;;21.06;100.00;99014.00;5050799;28;20291;-54
2022/07/09 03:07:37;;;;;;;5.68;5.28;;;;;;;21.18;100.00;99025.38;5050729;28;20240;-55
2022/07/09 03:10:04;;;;;;;6.00;5.45;;;;;;;21.22;100.00;99016.31;5052752;28;20267;-54
2022/07/09 03:12:31;;;;;;;5.63;5.15;;;;;;;21.34;100.00;99008.22;5058222;28;20223;-55
2022/07/09 03:14:58;;;;;;;5.75;5.28;;;;;;;21.37;100.00;99013.25;5059514;28;20824;-54
2022/07/09 03:17:26;;;;;;;5.45;4.90;;;;;;;21.48;100.00;99012.38;5060103;28;20197;-55
2022/07/09 03:19:53;;;;;;;4.88;4.57;;;;;;;21.58;100.00;99013.28;5055703;28;20279;-55
2022/07/09 03:22:22;;;;;;;6.18;5.32;;;;;;;21.74;100.00;99016.38;5058743;28;20283;-54
2022/07/09 03:24:49;;;;;;;5.00;4.65;;;;;;;21.86;100.00;99016.31;5060075;28;20223;-55
2022/07/09 03:27:15;;;;;;;6.22;5.85;;;;;;;22.04;100.00;99022.72;5058621;28;20207;-55
2022/07/09 03:29:42;;;;;;;4.95;4.65;;;;;;;22.17;100.00;99026.03;5058494;28;20207;-54
2022/07/09 03:32:10;;;;;;;5.10;4.75;;;;;;;22.27;100.00;99028.72;5059588;28;20295;-54
2022/07/09 03:34:37;;;;;;;5.97;4.28;;;;;;;22.37;100.00;99025.16;5058939;28;20291;-55
2022/07/09 03:37:04;;;;;;;8.60;7.93;;;;;;;22.52;100.00;99030.13;5058041;28;20759;-54
2022/07/09 03:39:32;;;;;;;5.38;5.03;;;;;;;22.59;100.00;99029.47;5059617;28;20274;-55
2022/07/09 03:41:59;;;;;;;4.57;4.28;;;;;;;22.69;100.00;99021.56;5058864;28;20267;-55
2022/07/09 03:44:26;;;;;;;10.25;9.32;;;;;;;22.83;100.00;99023.88;5057623;28;20192;-55
2022/07/09 03:46:53;;;;;;;4.65;4.40;;;;;;;23.06;100.00;99021.88;5054897;28;20199;-55
2022/07/09 03:49:20;;;;;;;5.55;5.18;;;;;;;23.19;100.00;99025.13;5049622;28;20945;-55
2022/07/09 03:51:47;;;;;;;5.35;4.70;;;;;;;23.34;100.00;99023.78;5029363;28;20233;-56
2022/07/09 03:54:14;;;;;;;6.53;5.70;;;;;;;23.38;100.00;99025.16;5029638;28;20249;-56
2022/07/09 03:56:42;;;;;;;4.95;4.65;;;;;;;23.74;100.00;99031.63;5029151;28;20275;-56
2022/07/09 03:59:09;;;;;;;5.15;4.75;;;;;;;24.80;100.00;99042.09;5029544;28;20224;-56
2022/07/09 04:01:37;;;;;;;5.05;4.43;;;;;;;25.64;98.71;99052.59;5029522;28;20322;-56
2022/07/09 04:04:04;;;;;;;4.82;4.40;;;;;;;26.35;94.29;99052.56;5029437;28;20250;-55
2022/07/09 04:06:31;;;;;;;6.15;3.85;;;;;;;26.60;92.40;99064.22;5029506;28;20252;-55
2022/07/09 04:09:03;;;;;;;4.25;3.88;;;;;;;26.56;91.24;99055.72;5029544;28;20235;-55
2022/07/09 04:11:30;;;;;;;4.47;4.15;;;;;;;26.39;91.62;99054.78;5028972;28;20233;-55
2022/07/09 04:14:00;;;;;;;4.40;4.00;;;;;;;26.27;92.83;99055.16;5029342;28;20221;-55
2022/07/09 04:16:27;;;;;;;4.72;4.35;;;;;;;26.13;93.01;99059.19;5036037;28;20252;-54
2022/07/09 04:18:55;;;;;;;4.65;4.25;;;;;;;25.93;94.33;99057.69;5049115;28;20227;-57
2022/07/09 04:21:22;;;;;;;4.00;3.80;;;;;;;25.23;97.30;99048.63;5049335;28;20224;-58
2022/07/09 04:23:49;;;;;;;5.03;4.55;;;;;;;25.06;98.82;99054.72;5049046;28;20219;-57
2022/07/09 04:26:16;;;;;;;4.20;4.00;;;;;;;24.98;98.82;99059.94;5053097;28;20216;-58
2022/07/09 04:28:43;;;;;;;4.13;3.92;;;;;;;25.50;96.83;99058.41;5056801;28;20319;-57
2022/07/09 04:31:11;;;;;;;4.57;3.47;;;;;;;25.67;94.86;99058.44;5057905;28;20222;-59
2022/07/09 04:33:38;;;;;;;4.05;3.70;;;;;;;26.01;93.89;99058.59;5058785;28;20232;-57
2022/07/09 04:36:06;;;;;;;3.80;3.42;;;;;;;26.62;90.59;99051.59;5054000;28;20224;-56
2022/07/09 04:38:33;;;;;;;3.97;3.78;;;;;;;26.50;90.89;99056.34;5063968;28;20267;-56
2022/07/09 04:41:00;;;;;;;4.15;3.95;;;;;;;26.18;91.70;99056.09;5068682;28;20921;-56
2022/07/09 04:43:27;;;;;;;4.07;3.72;;;;;;;25.85;93.18;99061.09;5069110;28;20277;-59
2022/07/09 04:45:54;;;;;;;8.10;3.70;;;;;;;25.33;96.08;99055.56;5066180;28;20226;-57
2022/07/09 04:48:22;;;;;;;3.92;3.60;;;;;;;24.77;99.32;99057.47;5048986;28;20232;-57
2022/07/09 04:50:50;;;;;;;4.32;3.90;;;;;;;24.57;100.00;99056.69;5048905;28;20213;-58
2022/07/09 04:53:17;;;;;;;5.95;3.80;;;;;;;24.42;100.00;99053.66;5051405;28;20325;-55
2022/07/09 04:55:44;;;;;;;4.15;3.85;;;;;;;24.14;100.00;99049.22;5058822;28;20224;-55
2022/07/09 04:58:11;;;;;;;4.32;4.03;;;;;;;23.95;100.00;99036.78;5065159;28;20255;-55
2022/07/09 05:00:38;;;;;;;7.00;4.30;;;;;;;23.98;100.00;99046.28;5050299;28;20307;-55
2022/07/09 05:03:05;;;;;;;4.45;4.10;;;;;;;24.01;100.00;99051.31;5052790;28;20238;-55
2022/07/09 05:05:33;;;;;;;4.75;4.25;;;;;;;24.05;100.00;99050.03;5063179;28;20329;-55
2022/07/09 05:08:00;;;;;;;4.10;3.80;;;;;;;24.12;100.00;99043.22;5054028;28;20226;-55
2022/07/09 05:10:27;;;;;;;4.60;4.30;;;;;;;24.21;100.00;99050.31;5058523;28;20529;-55
2022/07/09 05:12:54;;;;;;;6.70;6.05;;;;;;;24.21;100.00;99058.28;5055867;28;20295;-55
2022/07/09 05:15:22;;;;;;;6.00;4.53;;;;;;;24.23;100.00;99059.00;5056692;28;20321;-57
2022/07/09 05:17:49;;;;;;;6.32;5.10;;;;;;;24.11;100.00;99065.41;5058730;28;20192;-57
2022/07/09 05:20:16;;;;;;;4.50;4.30;;;;;;;23.97;100.00;99063.16;5059531;28;20231;-57
2022/07/09 05:22:45;;;;;;;5.20;4.90;;;;;;;23.79;100.00;99055.09;5061036;28;20236;-58
2022/07/09 05:25:12;;;;;;;10.85;9.85;;;;;;;23.70;100.00;99059.38;5060498;28;20749;-57
2022/07/09 05:27:43;;;;;;;4.93;4.63;;;;;;;23.80;100.00;99062.91;5058639;28;20196;-58
2022/07/09 05:30:12;;;;;;;4.88;4.47;;;;;;;23.73;100.00;99064.41;5055475;28;20203;-56
2022/07/09 05:32:39;;;;;;;8.55;7.50;;;;;;;23.76;100.00;99058.84;5058224;28;20239;-54
2022/07/09 05:35:07;;;;;;;9.80;8.90;;;;;;;23.84;100.00;99052.84;5060667;28;20313;-54
2022/07/09 05:37:34;;;;;;;6.15;4.65;;;;;;;24.19;100.00;99055.75;5060071;28;20220;-54
2022/07/09 05:40:06;;;;;;;4.65;4.35;;;;;;;24.37;100.00;99061.22;5059788;28;20283;-56
2022/07/09 05:42:33;;;;;;;6.53;5.95;;;;;;;24.43;100.00;99059.81;5051279;28;20262;-55
2022/07/09 05:45:00;;;;;;;6.07;5.78;;;;;;;24.53;100.00;99061.44;5051264;28;20204;-55
2022/07/09 05:47:27;;;;;;;10.93;10.02;;;;;;;24.48;100.00;99058.41;5051412;28;20663;-57
2022/07/09 05:49:54;;;;;;;5.72;5.03;;;;;;;24.45;100.00;99063.16;5055398;28;20232;-55
2022/07/09 05:52:21;;;;;;;7.82;7.07;;;;;;;24.23;100.00;99057.19;5071058;28;20206;-54
2022/07/09 05:54:48;;;;;;;7.28;6.72;;;;;;;24.19;100.00;99063.72;5061862;28;20229;-56
2022/07/09 05:57:16;;;;;;;4.75;4.47;;;;;;;24.01;100.00;99060.09;5060099;28;20199;-57
2022/07/09 05:59:43;;;;;;;6.03;5.65;;;;;;;23.88;100.00;99059.53;5058917;28;20197;-57
2022/07/09 06:02:10;;;;;;;12.15;11.15;;;;;;;23.82;100.00;99052.97;5060206;28;20196;-58
2022/07/09 06:04:37;;;;;;;9.82;9.02;;;;;;;23.86;100.00;99051.72;5060400;28;20201;-57
2022/07/09 06:07:05;;;;;;;4.75;4.43;;;;;;;23.78;100.00;99056.91;5058414;28;20192;-57
2022/07/09 06:09:32;;;;;;;5.00;4.60;;;;;;;23.83;100.00;99057.31;5059556;28;20249;-57
2022/07/09 06:11:59;;;;;;;4.88;4.35;;;;;;;23.88;100.00;99054.25;5060596;28;20669;-57
2022/07/09 06:14:28;;;;;;;4.88;4.50;;;;;;;23.89;100.00;99051.47;5056094;28;20216;-57
2022/07/09 06:16:56;;;;;;;4.00;3.80;;;;;;;23.88;100.00;99055.09;5059209;28;20621;-58
2022/07/09 06:19:23;;;;;;;6.05;4.68;;;;;;;23.79;100.00;99050.63;5060540;28;20188;-58
2022/07/09 06:21:50;;;;;;;6.07;5.32;;;;;;;23.93;100.00;99048.53;5052309;28;20652;-61
2022/07/09 06:24:17;;;;;;;8.80;8.13;;;;;;;24.00;100.00;99047.00;5054190;28;20195;-58
2022/07/09 06:26:46;;;;;;;5.50;5.05;;;;;;;24.01;100.00;99048.66;5068428;28;20196;-58
2022/07/09 06:29:13;;;;;;;11.10;6.65;;;;;;;24.09;100.00;99046.97;5063126;28;20188;-57
2022/07/09 06:31:41;;;;;;;6.05;4.90;;;;;;;24.15;100.00;99045.59;5059400;28;20253;-57
2022/07/09 06:34:10;;;;;;;22.38;9.57;;;;;;;24.27;100.00;99039.16;5060820;28;20780;-55
2022/07/09 06:36:37;;;;;;;5.35;5.05;;;;;;;24.47;100.00;99038.16;5059575;28;20558;-56
2022/07/09 06:41:48;;;;;;;5.28;4.85;;;;;;;24.86;100.00;99040.66;5069121;28;20218;-57
2022/07/09 06:44:15;;;;;;;5.15;4.70;;;;;;;25.08;100.00;99031.50;5070827;28;20278;-57
2022/07/09 06:46:44;;;;;;;5.55;4.40;;;;;;;25.09;100.00;99028.72;5070715;28;20658;-56
2022/07/09 06:49:11;;;;;;;5.10;4.80;;;;;;;25.12;100.00;99033.72;5071023;28;20291;-58
2022/07/09 06:51:38;;;;;;;5.32;4.95;;;;;;;25.22;100.00;99028.38;5071229;28;20263;-57
2022/07/09 06:54:04;;;;;;;6.75;4.47;;;;;;;25.42;98.98;99031.72;5069747;28;20222;-57
2022/07/09 06:56:31;;;;;;;6.80;4.15;;;;;;;25.53;100.00;99027.03;5070743;28;20238;-58
2022/07/09 06:58:58;;;;;;;5.13;4.80;;;;;;;25.46;97.47;99025.13;5070735;28;20283;-59
2022/07/09 07:01:25;;;;;;;5.18;4.78;;;;;;;25.45;98.20;99023.47;5070743;28;20659;-59
2022/07/09 07:03:53;;;;;;;5.00;4.32;;;;;;;25.52;97.96;99012.06;5070725;28;20188;-59
2022/07/09 07:06:20;;;;;;;5.00;4.45;;;;;;;25.61;98.50;99021.03;5070674;28;20204;-59
2022/07/09 07:08:47;;;;;;;6.05;5.57;;;;;;;25.72;97.34;99022.63;5070627;28;20199;-59
2022/07/09 07:11:14;;;;;;;5.15;4.78;;;;;;;25.59;98.13;99026.44;5070453;28;20294;-59
2022/07/09 07:13:41;;;;;;;5.45;4.97;;;;;;;25.60;97.23;99024.63;5070461;28;20310;-59
2022/07/09 07:16:08;;;;;;;5.20;4.90;;;;;;;25.37;98.65;99023.38;5070331;28;20229;-59
2022/07/09 07:18:35;;;;;;;5.13;4.82;;;;;;;25.27;97.79;99029.59;5070372;28;20204;-60
2022/07/09 07:21:04;;;;;;;5.60;5.20;;;;;;;25.10;99.23;99027.72;5070046;28;20686;-60
2022/07/09 07:23:31;;;;;;;5.40;4.90;;;;;;;25.19;98.52;99020.69;5070541;28;20203;-60
2022/07/09 07:25:58;;;;;;;5.22;4.93;;;;;;;25.37;97.80;99039.34;5070311;28;20595;-60
2022/07/09 07:28:25;;;;;;;18.38;12.02;;;;;;;25.70;96.86;99041.38;5070114;28;20588;-55
2022/07/09 07:30:52;;;;;;;6.95;6.30;;;;;;;25.83;95.81;99041.84;5070153;28;20202;-60
2022/07/09 07:33:19;;;;;;;7.05;5.85;;;;;;;25.84;95.23;99043.50;5070185;28;20255;-60
2022/07/09 07:35:46;;;;;;;7.85;7.10;;;;;;;26.15;94.18;99035.09;5070177;28;20287;-59
2022/07/09 07:38:14;;;;;;;5.68;5.32;;;;;;;26.35;93.22;99033.94;5070054;28;20223;-55
2022/07/09 07:40:42;;;;;;;5.63;5.13;;;;;;;26.47;92.38;99029.19;5070618;28;20200;-53
2022/07/09 07:43:11;;;;;;;5.53;5.28;;;;;;;26.54;91.44;99024.91;5070063;28;20285;-53
2022/07/09 07:45:38;;;;;;;9.40;5.90;;;;;;;26.54;91.30;99027.56;5069812;28;20200;-54
2022/07/09 07:48:06;;;;;;;6.10;5.75;;;;;;;26.95;90.54;99034.00;5070077;28;20200;-53
2022/07/09 07:50:38;;;;;;;6.55;5.95;;;;;;;27.52;88.51;99031.50;5070013;28;20191;-55
2022/07/09 07:53:05;;;;;;;6.25;5.70;;;;;;;28.05;85.29;99034.59;5069701;28;20253;-54
2022/07/09 07:55:34;;;;;;;6.60;6.03;;;;;;;28.10;83.68;99034.91;5069683;28;20200;-53
2022/07/09 07:58:01;;;;;;;6.13;5.72;;;;;;;28.16;83.44;99039.59;5069808;28;20292;-54
2022/07/09 08:00:28;;;;;;;5.97;5.15;;;;;;;28.44;81.88;99041.94;5069792;28;20202;-54
2022/07/09 08:02:55;;;;;;;5.93;5.38;;;;;;;28.22;81.04;99042.63;5069457;28;20235;-54
2022/07/09 08:05:22;;;;;;;6.97;5.53;;;;;;;28.08;81.90;99038.75;5069625;28;20204;-55
2022/07/09 08:07:49;;;;;;;5.43;4.93;;;;;;;28.00;81.47;99041.41;5069607;28;20575;-54
2022/07/09 08:10:16;;;;;;;5.30;4.90;;;;;;;27.95;80.36;99039.25;5057809;28;20293;-55
2022/07/09 08:12:45;;;;;;;4.82;4.43;;;;;;;27.88;80.44;99034.75;5055717;28;20196;-53
2022/07/09 08:15:12;;;;;;;7.75;6.97;;;;;;;27.65;81.28;99037.25;5059622;28;20204;-55
2022/07/09 08:17:39;;;;;;;7.18;6.68;;;;;;;27.47;82.76;99032.81;5058078;28;20745;-54
2022/07/09 08:20:07;;;;;;;5.72;5.43;;;;;;;27.26;83.96;99031.59;5059348;28;20219;-54
2022/07/09 08:22:34;;;;;;;4.57;4.32;;;;;;;27.17;84.23;99027.25;5059713;28;20193;-55
2022/07/09 08:25:00;;;;;;;6.30;4.60;;;;;;;27.02;85.95;99029.69;5055345;28;20239;-54
2022/07/09 08:27:27;;;;;;;5.07;4.78;;;;;;;26.89;85.77;99034.59;5059537;28;20282;-56
2022/07/09 08:29:56;;;;;;;5.30;4.90;;;;;;;26.93;85.78;99030.66;5057439;28;20283;-55
2022/07/09 08:32:23;;;;;;;6.15;4.30;;;;;;;26.91;85.47;99028.09;5053995;28;20192;-54
2022/07/09 08:34:49;;;;;;;5.40;5.00;;;;;;;26.86;85.42;99034.94;5062135;28;20678;-55
2022/07/09 08:37:16;;;;;;;5.20;4.80;;;;;;;26.76;86.18;99032.34;5060352;28;20722;-54
2022/07/09 08:39:43;;;;;;;4.85;4.45;;;;;;;26.60;86.15;99029.63;5063354;28;20584;-55
2022/07/09 08:42:11;;;;;;;5.35;4.70;;;;;;;26.48;87.46;99025.56;5063196;28;20367;-56
2022/07/09 08:44:42;;;;;;;5.00;4.70;;;;;;;26.34;87.25;99030.44;5061745;28;20267;-54
2022/07/09 08:47:12;;;;;;;5.03;4.72;;;;;;;26.36;86.69;99023.16;5062824;28;20227;-55
2022/07/09 08:49:39;;;;;;;5.03;4.63;;;;;;;26.40;86.40;99029.00;5063597;28;20207;-54
2022/07/09 08:52:08;;;;;;;5.20;4.85;;;;;;;26.53;85.45;99018.75;5062572;28;20284;-54
2022/07/09 08:54:37;;;;;;;4.53;4.20;;;;;;;26.71;85.32;99021.38;5061650;28;20298;-54
2022/07/09 08:57:05;;;;;;;4.95;4.53;;;;;;;27.01;83.86;99022.69;5059907;28;20239;-59
2022/07/09 08:59:32;;;;;;;4.43;4.20;;;;;;;27.19;82.67;99017.28;5061942;28;20270;-61
2022/07/09 09:02:04;;;;;;;4.80;4.50;;;;;;;27.08;83.41;99016.56;5066633;28;20196;-60
2022/07/09 09:04:34;;;;;;;4.68;4.25;;;;;;;27.22;82.68;99020.44;5063574;28;20192;-60
2022/07/09 09:07:01;;;;;;;4.97;4.60;;;;;;;27.27;81.82;99018.13;5058672;28;20200;-55
2022/07/09 09:09:28;;;;;;;4.80;4.40;;;;;;;27.23;81.55;99022.09;5062865;28;20770;-55
2022/07/09 09:11:58;;;;;;;5.40;5.00;;;;;;;27.25;81.62;99012.13;5064347;28;20279;-60
2022/07/09 09:14:25;;;;;;;4.75;4.22;;;;;;;27.13;80.98;99020.56;5063072;28;20601;-60
2022/07/09 09:16:52;;;;;;;4.60;4.30;;;;;;;26.81;81.37;99014.09;5060748;28;20188;-60
2022/07/09 09:19:19;;;;;;;4.18;3.72;;;;;;;26.81;82.22;99021.25;5063560;28;20188;-60
2022/07/09 09:21:53;;;;;;;4.63;4.32;;;;;;;27.02;81.42;99014.53;5061910;28;20275;-62
2022/07/09 09:24:23;;;;;;;4.95;4.55;;;;;;;27.22;80.64;99014.25;5061378;28;20252;-60
2022/07/09 09:26:50;;;;;;;6.95;5.22;;;;;;;27.25;80.64;99029.94;5061405;28;20196;-60
2022/07/09 09:29:17;;;;;;;6.00;4.55;;;;;;;27.03;80.70;99024.19;5061051;28;20725;-60
2022/07/09 09:31:46;;;;;;;7.05;4.55;;;;;;;27.09;81.06;99017.38;5062888;28;20287;-60
2022/07/09 09:34:15;;;;;;;4.82;4.53;;;;;;;27.01;81.51;99026.19;5062461;28;20304;-59
2022/07/09 09:36:43;;;;;;;5.38;4.95;;;;;;;26.87;82.63;99020.59;5061066;28;20843;-60
2022/07/09 09:39:14;;;;;;;5.50;5.20;;;;;;;27.01;82.69;99020.84;5062380;28;20192;-60
2022/07/09 09:41:42;;;;;;;5.10;4.70;;;;;;;26.84;83.68;99010.28;5063539;28;20188;-60
2022/07/09 09:44:11;;;;;;;6.13;4.88;;;;;;;26.72;83.59;99023.03;5061634;28;20243;-59
2022/07/09 09:46:39;;;;;;;5.32;4.82;;;;;;;26.62;84.48;99019.66;5060175;28;20213;-59
2022/07/09 09:49:07;;;;;;;6.05;4.68;;;;;;;26.60;84.36;99025.13;5063717;28;20290;-61
2022/07/09 09:51:37;;;;;;;5.55;4.80;;;;;;;26.50;84.69;99023.56;5061191;28;20214;-61
2022/07/09 09:54:05;;;;;;;5.25;4.80;;;;;;;26.53;84.27;99017.91;5057750;28;20212;-60
2022/07/09 09:56:34;;;;;;;4.90;4.70;;;;;;;26.39;83.68;99016.69;5059300;28;20287;-61
2022/07/09 09:59:01;;;;;;;5.13;4.72;;;;;;;26.53;83.92;99023.25;5060783;28;20193;-60
2022/07/09 10:01:29;;;;;;;5.00;4.63;;;;;;;26.65;83.06;99020.16;5061897;28;20199;-60
2022/07/09 10:03:56;;;;;;;6.97;5.50;;;;;;;26.72;81.92;99025.69;5062479;28;20288;-61
2022/07/09 10:06:25;;;;;;;5.70;5.07;;;;;;;26.75;81.58;99026.19;5058451;28;20199;-55
2022/07/09 10:08:52;;;;;;;6.18;5.40;;;;;;;26.80;81.58;99019.56;5060762;28;20207;-54
2022/07/09 10:11:19;;;;;;;7.85;5.30;;;;;;;26.94;80.54;99019.84;5061961;28;20196;-55
2022/07/09 10:13:55;;;;;;;5.35;4.95;;;;;;;27.17;80.02;99011.25;5062288;28;20707;-55
2022/07/09 10:16:36;;;;;;;5.43;5.05;;;;;;;27.38;78.84;99022.31;5062003;28;20202;-54
2022/07/09 10:19:03;;;;;;;5.50;5.20;;;;;;;27.42;76.37;99013.84;5060823;28;20188;-54
2022/07/09 10:21:35;;;;;;;6.05;5.57;;;;;;;27.43;76.54;99017.31;5059911;28;20583;-54
2022/07/09 10:24:02;;;;;;;5.88;5.32;;;;;;;27.43;76.67;99012.81;5060489;28;20601;-55
2022/07/09 10:26:44;;;;;;;6.35;6.00;;;;;;;27.33;76.13;99008.63;5062835;28;20606;-60
2022/07/09 10:29:24;;;;;;;5.55;5.10;;;;;;;27.27;75.68;98995.97;5062147;28;20656;-61
2022/07/09 10:31:52;;;;;;;5.30;5.00;;;;;;;27.14;76.27;99014.25;5060220;28;20276;-60
2022/07/09 10:34:40;;;;;;;5.78;5.22;;;;;;;27.13;76.92;99010.75;5061061;28;20251;-60
2022/07/09 10:37:07;;;;;;;5.80;4.80;;;;;;;27.08;77.30;99005.09;5058788;28;20627;-61
2022/07/09 10:39:34;;;;;;;5.38;5.07;;;;;;;26.91;76.93;99009.47;5060253;28;20192;-59
2022/07/09 10:42:03;;;;;;;5.65;4.70;;;;;;;26.86;77.56;99014.47;5062672;28;20192;-61
2022/07/09 10:44:36;;;;;;;5.28;4.78;;;;;;;26.79;78.07;99007.25;5059544;28;20195;-61
2022/07/09 10:47:04;;;;;;;5.82;5.53;;;;;;;26.73;77.79;99004.25;5060133;28;20196;-55
2022/07/09 10:49:31;;;;;;;5.60;5.22;;;;;;;26.79;78.29;99007.25;5056893;28;20203;-56
2022/07/09 10:51:59;;;;;;;6.30;5.80;;;;;;;26.81;77.44;99005.25;5060694;28;20519;-56
2022/07/09 10:54:26;;;;;;;7.68;5.45;;;;;;;26.68;77.53;99003.88;5061488;28;20226;-55
2022/07/09 10:56:54;;;;;;;6.10;5.68;;;;;;;26.60;78.18;99005.66;5058632;28;20193;-55
2022/07/09 10:59:22;;;;;;;5.68;5.38;;;;;;;26.62;78.69;98996.53;5059878;28;20199;-55
2022/07/09 11:01:51;;;;;;;5.40;5.10;;;;;;;26.61;78.40;98997.53;5061432;28;20652;-55
2022/07/09 11:04:28;;;;;;;5.60;5.13;;;;;;;26.49;78.34;98990.81;5060352;28;20195;-55
2022/07/09 11:06:56;;;;;;;6.05;5.43;;;;;;;26.67;78.09;99001.38;5057634;28;20203;-55
2022/07/09 11:09:23;;;;;;;5.10;4.72;;;;;;;26.61;78.00;98999.34;5059391;28;20657;-55
2022/07/09 11:11:51;;;;;;;7.88;6.72;;;;;;;26.60;79.17;99009.16;5056584;28;20205;-56
2022/07/09 11:14:18;;;;;;;6.95;6.43;;;;;;;26.60;78.83;98998.50;5050003;28;20228;-55
2022/07/09 11:16:56;;;;;;;7.45;6.97;;;;;;;26.68;79.04;99000.38;5050460;28;20319;-55
2022/07/09 11:19:23;;;;;;;7.40;5.80;;;;;;;26.70;78.89;98990.41;5050471;28;20200;-56
2022/07/09 11:21:51;;;;;;;6.10;5.50;;;;;;;26.59;78.76;98990.69;5050248;28;20212;-55
2022/07/09 11:24:19;;;;;;;5.90;5.50;;;;;;;26.52;79.33;98984.34;5050815;28;20216;-55
2022/07/09 11:26:47;;;;;;;5.93;5.40;;;;;;;26.50;79.46;98991.63;5050177;28;20205;-55
2022/07/09 11:29:15;;;;;;;5.70;5.40;;;;;;;26.45;79.99;98992.09;5049644;28;20212;-59
2022/07/09 11:31:48;;;;;;;5.82;5.55;;;;;;;26.48;79.84;98993.63;5050384;28;20698;-60
2022/07/09 11:34:17;;;;;;;6.28;5.93;;;;;;;26.48;80.40;98989.13;5050200;28;20220;-60